Observation data for O'Donnell on 05/16/2018      Previous  Date  Next       Current Mesonet Observations  Soil Data  Daily Summary Page  Observations in Plain Language
KOES 160500Z 05012KT 18/12 A30 RMK A01 T01840124  RH  071%=      5-min Rain = 0
KOES 160505Z 06012KT 18/12 A30 RMK A01 T01840123  RH  070%=      5-min Rain = 0
KOES 160510Z 07010KT 18/12 A30 RMK A01 T01840124  RH  071%=      5-min Rain = 0
KOES 160515Z 09010KT 19/12 A2999 RMK A01 T01850123  RH  069%=      5-min Rain = 0
KOES 160520Z 09011KT 19/12 A30 RMK A01 T01920122  RH  066%=      5-min Rain = 0
KOES 160525Z 09010KT 20/12 A30 RMK A01 T01950123  RH  065%=      5-min Rain = 0
KOES 160530Z 06008KT 19/13 A3001 RMK A01 T01870129  RH  072%=      5-min Rain = 0
KOES 160535Z 06008KT 18/13 A3001 RMK A01 T01810127  RH  074%=      5-min Rain = 0
KOES 160540Z 09007KT 18/13 A30 RMK A01 T01810127  RH  073%=      5-min Rain = 0
KOES 160545Z 10007KT 19/12 A30 RMK A01 T01870124  RH  069%=      5-min Rain = 0
KOES 160550Z 10007KT 19/12 A30 RMK A01 T01910124  RH  068%=      5-min Rain = 0
KOES 160555Z 09007KT 19/13 A30 RMK A01 T01910125  RH  068%=      5-min Rain = 0
KOES 160600Z 07009KT 18/13 A3001 RMK A01 T01840129  RH  074%=      5-min Rain = 0
KOES 160605Z 07010KT 18/13 A3001 RMK A01 T01780132  RH  078%=      5-min Rain = 0
KOES 160610Z 09008KT 18/13 A3001 RMK A01 T01800134  RH  078%=      5-min Rain = 0
KOES 160615Z 10010KT 18/13 A3001 RMK A01 T01830134  RH  077%=      5-min Rain = 0
KOES 160620Z 11012KT 19/13 A30 RMK A01 T01860133  RH  074%=      5-min Rain = 0
KOES 160625Z 12013G18KT 19/13 A30 RMK A01 T01870134  RH  074%=      5-min Rain = 0
KOES 160630Z 10012KT 19/14 A30 RMK A01 T01900135  RH  074%=      5-min Rain = 0
KOES 160635Z 09011KT 19/14 A3001 RMK A01 T01900136  RH  074%=      5-min Rain = 0
KOES 160640Z 09010KT 19/14 A3001 RMK A01 T01900138  RH  075%=      5-min Rain = 0
KOES 160645Z 10008KT 19/14 A3001 RMK A01 T01900138  RH  075%=      5-min Rain = 0
KOES 160650Z 10007KT 19/14 A3001 RMK A01 T01910139  RH  075%=      5-min Rain = 0
KOES 160655Z 10008KT 19/14 A3001 RMK A01 T01910139  RH  075%=      5-min Rain = 0
KOES 160700Z 11007KT 19/14 A3001 RMK A01 T01910140  RH  075%=      5-min Rain = 0
KOES 160705Z 10006KT 19/14 A3001 RMK A01 T01900140  RH  075%=      5-min Rain = 0
KOES 160710Z 08005KT 19/14 A3001 RMK A01 T01880139  RH  077%=      5-min Rain = 0
KOES 160715Z 10003KT 18/14 A30 RMK A01 T01830139  RH  079%=      5-min Rain = 0
KOES 160720Z 11004KT 18/14 A30 RMK A01 T01820140  RH  080%=      5-min Rain = 0
KOES 160725Z 12004KT 18/14 A30 RMK A01 T01820138  RH  079%=      5-min Rain = 0
KOES 160730Z 12006KT 18/14 A30 RMK A01 T01830137  RH  078%=      5-min Rain = 0
KOES 160735Z 12006KT 18/14 A30 RMK A01 T01840137  RH  077%=      5-min Rain = 0
KOES 160740Z 12007KT 18/14 A30 RMK A01 T01840137  RH  077%=      5-min Rain = 0
KOES 160745Z 12008KT 18/14 A2999 RMK A01 T01840138  RH  077%=      5-min Rain = 0
KOES 160750Z 13008KT 18/14 A2999 RMK A01 T01840137  RH  077%=      5-min Rain = 0
KOES 160755Z 13009KT 19/14 A2999 RMK A01 T01850137  RH  077%=      5-min Rain = 0
KOES 160800Z 14009KT 19/14 A2998 RMK A01 T01860138  RH  077%=      5-min Rain = 0
KOES 160805Z 14010KT 19/14 A2998 RMK A01 T01850137  RH  077%=      5-min Rain = 0
KOES 160810Z 14009KT 18/14 A2998 RMK A01 T01840135  RH  076%=      5-min Rain = 0
KOES 160815Z 14009KT 18/13 A2998 RMK A01 T01830134  RH  076%=      5-min Rain = 0
KOES 160820Z 15011KT 18/13 A2998 RMK A01 T01820131  RH  075%=      5-min Rain = 0
KOES 160825Z 15010G15KT 18/13 A2998 RMK A01 T01830128  RH  073%=      5-min Rain = 0
KOES 160830Z 15010KT 18/13 A2998 RMK A01 T01840127  RH  072%=      5-min Rain = 0
KOES 160835Z 15010KT 18/13 A2998 RMK A01 T01830127  RH  072%=      5-min Rain = 0
KOES 160840Z 15009KT 18/13 A2998 RMK A01 T01820127  RH  073%=      5-min Rain = 0
KOES 160845Z 15009G14KT 18/13 A2998 RMK A01 T01820126  RH  073%=      5-min Rain = 0
KOES 160850Z 15008KT 18/13 A2998 RMK A01 T01820126  RH  073%=      5-min Rain = 0
KOES 160855Z 15010KT 18/13 A2998 RMK A01 T01810126  RH  073%=      5-min Rain = 0
KOES 160900Z 14009KT 18/13 A2998 RMK A01 T01810127  RH  074%=      5-min Rain = 0
KOES 160905Z 14009KT 18/13 A2998 RMK A01 T01790127  RH  074%=      5-min Rain = 0
KOES 160910Z 13009KT 18/13 A2998 RMK A01 T01780127  RH  075%=      5-min Rain = 0
KOES 160915Z 14008KT 18/13 A2998 RMK A01 T01770128  RH  076%=      5-min Rain = 0
KOES 160920Z 14009G14KT 18/13 A2998 RMK A01 T01760129  RH  077%=      5-min Rain = 0
KOES 160925Z 14010KT 18/13 A2998 RMK A01 T01760130  RH  077%=      5-min Rain = 0
KOES 160930Z 14010KT 18/13 A2998 RMK A01 T01750130  RH  078%=      5-min Rain = 0
KOES 160935Z 15010KT 18/13 A2998 RMK A01 T01750130  RH  078%=      5-min Rain = 0
KOES 160940Z 15008G13KT 17/13 A2998 RMK A01 T01740131  RH  079%=      5-min Rain = 0
KOES 160945Z 15009KT 17/13 A2998 RMK A01 T01740131  RH  079%=      5-min Rain = 0
KOES 160950Z 16009KT 17/13 A2998 RMK A01 T01730131  RH  079%=      5-min Rain = 0
KOES 160955Z 16010KT 17/13 A2997 RMK A01 T01730131  RH  080%=      5-min Rain = 0
KOES 161000Z 16010G15KT 17/13 A2997 RMK A01 T01730132  RH  080%=      5-min Rain = 0
KOES 161005Z 16010G15KT 17/13 A2997 RMK A01 T01730132  RH  080%=      5-min Rain = 0
KOES 161010Z 16010G15KT 17/13 A2997 RMK A01 T01720132  RH  081%=      5-min Rain = 0
KOES 161015Z 15009KT 17/13 A2997 RMK A01 T01720132  RH  081%=      5-min Rain = 0
KOES 161020Z 15008KT 17/13 A2997 RMK A01 T01720133  RH  081%=      5-min Rain = 0
KOES 161025Z 15009KT 17/13 A2997 RMK A01 T01720133  RH  081%=      5-min Rain = 0
KOES 161030Z 14008KT 17/13 A2998 RMK A01 T01720132  RH  080%=      5-min Rain = 0
KOES 161035Z 09007KT 17/13 A30 RMK A01 T01720132  RH  080%=      5-min Rain = 0
KOES 161040Z 05011KT 17/13 A3001 RMK A01 T01690131  RH  082%=      5-min Rain = 0
KOES 161045Z 06009KT 17/13 A3001 RMK A01 T01670131  RH  083%=      5-min Rain = 0
KOES 161050Z 11006KT 17/13 A30 RMK A01 T01660132  RH  084%=      5-min Rain = 0
KOES 161055Z 16007KT 17/13 A2999 RMK A01 T01660131  RH  083%=      5-min Rain = 0
KOES 161100Z 16007KT 17/13 A2999 RMK A01 T01670130  RH  082%=      5-min Rain = 0
KOES 161105Z 12006KT 17/13 A30 RMK A01 T01690129  RH  080%=      5-min Rain = 0
KOES 161110Z 08007KT 17/13 A30 RMK A01 T01680128  RH  081%=      5-min Rain = 0
KOES 161115Z 07008KT 16/13 A3001 RMK A01 T01640128  RH  083%=      5-min Rain = 0
KOES 161120Z 10006KT 16/13 A3001 RMK A01 T01630129  RH  084%=      5-min Rain = 0
KOES 161125Z 13006KT 17/13 A30 RMK A01 T01650129  RH  082%=      5-min Rain = 0
KOES 161130Z 15006KT 17/13 A2999 RMK A01 T01650128  RH  082%=      5-min Rain = 0
KOES 161135Z 14005KT 17/13 A2999 RMK A01 T01660127  RH  081%=      5-min Rain = 0
KOES 161140Z 12005KT 17/13 A2999 RMK A01 T01660128  RH  081%=      5-min Rain = 0
KOES 161145Z 09006KT 17/13 A30 RMK A01 T01660128  RH  082%=      5-min Rain = 0
KOES 161150Z 06007KT 16/13 A30 RMK A01 T01610128  RH  084%=      5-min Rain = 0
KOES 161155Z 08005KT 16/13 A30 RMK A01 T01560129  RH  087%=      5-min Rain = 0
KOES 161200Z 13004KT 16/13 A2999 RMK A01 T01560130  RH  088%=      5-min Rain = 0
KOES 161205Z 15004KT 16/13 A2999 RMK A01 T01560130  RH  088%=      5-min Rain = 0
KOES 161210Z 13005KT 16/13 A2999 RMK A01 T01570129  RH  087%=      5-min Rain = 0
KOES 161215Z 12006KT 16/13 A2999 RMK A01 T01570129  RH  087%=      5-min Rain = 0
KOES 161220Z 13006KT 16/13 A30 RMK A01 T01570129  RH  086%=      5-min Rain = 0
KOES 161225Z 13005KT 16/13 A30 RMK A01 T01580128  RH  086%=      5-min Rain = 0
KOES 161230Z 12005KT 16/13 A3001 RMK A01 T01600128  RH  085%=      5-min Rain = 0
KOES 161235Z 11005KT 16/13 A3002 RMK A01 T01620129  RH  084%=      5-min Rain = 0
KOES 161240Z 12008KT 16/13 A3002 RMK A01 T01640129  RH  083%=      5-min Rain = 0
KOES 161245Z 12006KT 17/13 A3002 RMK A01 T01660130  RH  082%=      5-min Rain = 0
KOES 161250Z 11007KT 17/13 A3003 RMK A01 T01690129  RH  081%=      5-min Rain = 0
KOES 161255Z 09007KT 17/13 A3003 RMK A01 T01700130  RH  080%=      5-min Rain = 0
KOES 161300Z 07008KT 17/13 A3004 RMK A01 T01710131  RH  081%=      5-min Rain = 0
KOES 161305Z 06008KT 17/13 A3005 RMK A01 T01690133  RH  083%=      5-min Rain = 0
KOES 161310Z 05006KT 17/13 A3005 RMK A01 T01680133  RH  083%=      5-min Rain = 0
KOES 161315Z 05005KT 17/13 A3005 RMK A01 T01680134  RH  084%=      5-min Rain = 0
KOES 161320Z 04003KT 17/14 A3006 RMK A01 T01700135  RH  084%=      5-min Rain = 0
KOES 161325Z 09003KT 17/13 A3006 RMK A01 T01720133  RH  081%=      5-min Rain = 0
KOES 161330Z 11005KT 18/13 A3006 RMK A01 T01770131  RH  078%=      5-min Rain = 0
KOES 161335Z 10007KT 18/13 A3007 RMK A01 T01810132  RH  076%=      5-min Rain = 0
KOES 161340Z 08009KT 19/13 A3008 RMK A01 T01850133  RH  075%=      5-min Rain = 0
KOES 161345Z 06011KT 18/14 A3008 RMK A01 T01780138  RH  081%=      5-min Rain = 0
KOES 161350Z 06009KT 18/14 A3008 RMK A01 T01750138  RH  082%=      5-min Rain = 0
KOES 161355Z 06010KT 18/14 A3009 RMK A01 T01750138  RH  082%=      5-min Rain = 0
KOES 161400Z 07012KT 18/14 A3009 RMK A01 T01770137  RH  081%=      5-min Rain = 0
KOES 161405Z 07012KT 18/14 A3009 RMK A01 T01780137  RH  080%=      5-min Rain = 0
KOES 161410Z 08009G15KT 18/14 A3009 RMK A01 T01810135  RH  078%=      5-min Rain = 0
KOES 161415Z 08014KT 18/14 A301 RMK A01 T01840138  RH  078%=      5-min Rain = 0
KOES 161420Z 08013KT 18/14 A301 RMK A01 T01820136  RH  078%=      5-min Rain = 0
KOES 161425Z 09011KT 18/13 A301 RMK A01 T01840134  RH  075%=      5-min Rain = 0
KOES 161430Z 11010KT 19/13 A301 RMK A01 T01870132  RH  073%=      5-min Rain = 0
KOES 161435Z 11011KT 19/13 A301 RMK A01 T01920131  RH  070%=      5-min Rain = 0
KOES 161440Z 12009G14KT 20/13 A301 RMK A01 T01970127  RH  066%=      5-min Rain = 0
KOES 161445Z 13009KT 20/12 A301 RMK A01 T02000122  RH  063%=      5-min Rain = 0
KOES 161450Z 14009KT 21/12 A301 RMK A01 T02070121  RH  060%=      5-min Rain = 0
KOES 161455Z 15010G15KT 21/11 A301 RMK A01 T02130114  RH  055%=      5-min Rain = 0
KOES 161500Z 15009KT 22/11 A3009 RMK A01 T02160113  RH  054%=      5-min Rain = 0
KOES 161505Z 13011KT 22/11 A3009 RMK A01 T02180110  RH  052%=      5-min Rain = 0
KOES 161510Z 13012G17KT 22/11 A3009 RMK A01 T02190107  RH  051%=      5-min Rain = 0
KOES 161515Z 13011G16KT 22/11 A3009 RMK A01 T02200111  RH  052%=      5-min Rain = 0
KOES 161520Z 12012G17KT 22/11 A3009 RMK A01 T02190112  RH  053%=      5-min Rain = 0
KOES 161525Z 13013G18KT 22/11 A3009 RMK A01 T02180111  RH  053%=      5-min Rain = 0
KOES 161530Z 14012G17KT 22/11 A3009 RMK A01 T02180111  RH  052%=      5-min Rain = 0
KOES 161535Z 12012G17KT 22/11 A3009 RMK A01 T02200113  RH  053%=      5-min Rain = 0
KOES 161540Z 14014KT 22/11 A3009 RMK A01 T02220109  RH  050%=      5-min Rain = 0
KOES 161545Z 14014G19KT 23/11 A3008 RMK A01 T02250106  RH  048%=      5-min Rain = 0
KOES 161550Z 14012G18KT 23/11 A3008 RMK A01 T02290105  RH  047%=      5-min Rain = 0
KOES 161555Z 14014G21KT 23/10 A3007 RMK A01 T02340099  RH  044%=      5-min Rain = 0
KOES 161600Z 14014G20KT 24/10 A3007 RMK A01 T02360099  RH  043%=      5-min Rain = 0
KOES 161605Z 14015G20KT 24/10 A3007 RMK A01 T02390099  RH  043%=      5-min Rain = 0
KOES 161610Z 15012G17KT 24/10 A3007 RMK A01 T02430101  RH  042%=      5-min Rain = 0
KOES 161615Z 14015G21KT 24/10 A3007 RMK A01 T02420101  RH  042%=      5-min Rain = 0
KOES 161620Z 14013G19KT 24/10 A3006 RMK A01 T02430104  RH  043%=      5-min Rain = 0
KOES 161625Z 15012G17KT 25/11 A3006 RMK A01 T02470106  RH  042%=      5-min Rain = 0
KOES 161630Z 14012G17KT 25/11 A3006 RMK A01 T02490107  RH  042%=      5-min Rain = 0
KOES 161635Z 14014G22KT 25/11 A3006 RMK A01 T02480108  RH  043%=      5-min Rain = 0
KOES 161640Z 14013KT 25/10 A3006 RMK A01 T02510104  RH  041%=      5-min Rain = 0
KOES 161645Z 14013G19KT 25/10 A3006 RMK A01 T02530104  RH  041%=      5-min Rain = 0
KOES 161650Z 13012G17KT 25/10 A3006 RMK A01 T02530104  RH  040%=      5-min Rain = 0
KOES 161655Z 13012G17KT 26/10 A3006 RMK A01 T02560097  RH  038%=      5-min Rain = 0
KOES 161700Z 12013G19KT 26/09 A3006 RMK A01 T02590091  RH  036%=      5-min Rain = 0
KOES 161705Z 13013KT 26/09 A3006 RMK A01 T02610089  RH  035%=      5-min Rain = 0
KOES 161710Z 13014KT 26/08 A3006 RMK A01 T02630084  RH  033%=      5-min Rain = 0
KOES 161715Z 14012G18KT 27/08 A3005 RMK A01 T02680079  RH  031%=      5-min Rain = 0
KOES 161720Z 14014G20KT 27/08 A3005 RMK A01 T02700075  RH  030%=      5-min Rain = 0
KOES 161725Z 13013G19KT 27/07 A3005 RMK A01 T02740072  RH  029%=      5-min Rain = 0
KOES 161730Z 14014G20KT 28/07 A3005 RMK A01 T02770066  RH  027%=      5-min Rain = 0
KOES 161735Z 14013KT 28/07 A3005 RMK A01 T02800066  RH  026%=      5-min Rain = 0
KOES 161740Z 16013G20KT 29/07 A3005 RMK A01 T02850068  RH  026%=      5-min Rain = 0
KOES 161745Z 14015G24KT 28/07 A3004 RMK A01 T02840066  RH  026%=      5-min Rain = 0
KOES 161750Z 14014G20KT 28/07 A3004 RMK A01 T02840068  RH  026%=      5-min Rain = 0
KOES 161755Z 13014G20KT 29/07 A3004 RMK A01 T02860073  RH  027%=      5-min Rain = 0
KOES 161800Z 13012G21KT 29/08 A3004 RMK A01 T02860076  RH  027%=      5-min Rain = 0
KOES 161805Z 14014G19KT 29/08 A3004 RMK A01 T02870079  RH  028%=      5-min Rain = 0
KOES 161810Z 13015G20KT 29/08 A3003 RMK A01 T02890078  RH  027%=      5-min Rain = 0
KOES 161815Z 14011G16KT 29/08 A3003 RMK A01 T02890078  RH  027%=      5-min Rain = 0
KOES 161820Z 12013G22KT 29/08 A3003 RMK A01 T02920076  RH  026%=      5-min Rain = 0
KOES 161825Z 13011KT 29/08 A3003 RMK A01 T02920075  RH  026%=      5-min Rain = 0
KOES 161830Z 12012G19KT 29/07 A3002 RMK A01 T02930074  RH  026%=      5-min Rain = 0
KOES 161835Z 14012G17KT 29/08 A3002 RMK A01 T02940077  RH  026%=      5-min Rain = 0
KOES 161840Z 15010G18KT 30/08 A3002 RMK A01 T03000082  RH  026%=      5-min Rain = 0
KOES 161845Z 16010G17KT 30/08 A3002 RMK A01 T03000079  RH  026%=      5-min Rain = 0
KOES 161850Z 15011G16KT 30/08 A3002 RMK A01 T03010083  RH  026%=      5-min Rain = 0
KOES 161855Z 16008KT 30/09 A3002 RMK A01 T03030087  RH  027%=      5-min Rain = 0
KOES 161900Z 15011G19KT 31/09 A3001 RMK A01 T03050086  RH  026%=      5-min Rain = 0
KOES 161905Z 16012KT 30/09 A3001 RMK A01 T03020086  RH  027%=      5-min Rain = 0
KOES 161910Z 15010KT 30/09 A3001 RMK A01 T03030088  RH  027%=      5-min Rain = 0
KOES 161915Z 16010KT 30/09 A30 RMK A01 T03020090  RH  028%=      5-min Rain = 0
KOES 161920Z 15010KT 30/09 A30 RMK A01 T03010092  RH  028%=      5-min Rain = 0
KOES 161925Z 14013G20KT 30/09 A30 RMK A01 T03020092  RH  028%=      5-min Rain = 0
KOES 161930Z 15010KT 30/10 A30 RMK A01 T03030096  RH  029%=      5-min Rain = 0
KOES 161935Z 16007G14KT 30/10 A30 RMK A01 T03040098  RH  029%=      5-min Rain = 0
KOES 161940Z 16009G17KT 31/09 A30 RMK A01 T03070094  RH  027%=      5-min Rain = 0
KOES 161945Z 16007G12KT 31/09 A30 RMK A01 T03070093  RH  027%=      5-min Rain = 0
KOES 161950Z 15007KT 30/10 A2999 RMK A01 T03040095  RH  028%=      5-min Rain = 0
KOES 161955Z 14010G15KT 31/09 A2999 RMK A01 T03070093  RH  027%=      5-min Rain = 0
KOES 162000Z 14010G17KT 31/09 A2999 RMK A01 T03070091  RH  027%=      5-min Rain = 0
KOES 162005Z 13009G14KT 31/09 A2999 RMK A01 T03050091  RH  027%=      5-min Rain = 0
KOES 162010Z 18010G15KT 31/08 A2999 RMK A01 T03130080  RH  024%=      5-min Rain = 0
KOES 162015Z 18008G13KT 32/08 A2999 RMK A01 T03150076  RH  023%=      5-min Rain = 0
KOES 162020Z 15008G16KT 32/08 A2998 RMK A01 T03150078  RH  023%=      5-min Rain = 0
KOES 162025Z 13007G14KT 31/08 A2998 RMK A01 T03140079  RH  024%=      5-min Rain = 0
KOES 162030Z 12006KT 31/08 A2998 RMK A01 T03100080  RH  024%=      5-min Rain = 0
KOES 162035Z 14012G17KT 31/08 A2998 RMK A01 T03130082  RH  024%=      5-min Rain = 0
KOES 162040Z 12010G15KT 31/08 A2998 RMK A01 T03140081  RH  024%=      5-min Rain = 0
KOES 162045Z 13007G12KT 31/08 A2998 RMK A01 T03110083  RH  025%=      5-min Rain = 0
KOES 162050Z 15007KT 32/08 A2997 RMK A01 T03180083  RH  024%=      5-min Rain = 0
KOES 162055Z 15007G21KT 32/08 A2997 RMK A01 T03180079  RH  023%=      5-min Rain = 0
KOES 162100Z 14011G18KT 32/08 A2997 RMK A01 T03220076  RH  022%=      5-min Rain = 0
KOES 162105Z 15009G14KT 32/08 A2996 RMK A01 T03220075  RH  022%=      5-min Rain = 0
KOES 162110Z 16010G17KT 32/08 A2996 RMK A01 T03220077  RH  023%=      5-min Rain = 0
KOES 162115Z 15008KT 33/08 A2996 RMK A01 T03290081  RH  022%=      5-min Rain = 0
KOES 162120Z 14012G19KT 33/09 A2995 RMK A01 T03270085  RH  023%=      5-min Rain = 0
KOES 162125Z 16011G17KT 33/09 A2995 RMK A01 T03250085  RH  023%=      5-min Rain = 0
KOES 162130Z 11009KT 32/08 A2995 RMK A01 T03230084  RH  023%=      5-min Rain = 0
KOES 162135Z 11008G14KT 32/08 A2994 RMK A01 T03180083  RH  024%=      5-min Rain = 0
KOES 162140Z 14009G14KT 32/09 A2994 RMK A01 T03220086  RH  024%=      5-min Rain = 0
KOES 162145Z 16010G16KT 33/09 A2994 RMK A01 T03260086  RH  023%=      5-min Rain = 0
KOES 162150Z 15010KT 32/09 A2994 RMK A01 T03220085  RH  024%=      5-min Rain = 0
KOES 162155Z 14008G14KT 33/09 A2994 RMK A01 T03250086  RH  023%=      5-min Rain = 0
KOES 162200Z 14009G17KT 33/09 A2993 RMK A01 T03270087  RH  023%=      5-min Rain = 0
KOES 162205Z 12010G17KT 33/08 A2993 RMK A01 T03270084  RH  023%=      5-min Rain = 0
KOES 162210Z 14008G13KT 33/08 A2993 RMK A01 T03270083  RH  023%=      5-min Rain = 0
KOES 162215Z 13006G11KT 33/08 A2992 RMK A01 T03310081  RH  022%=      5-min Rain = 0
KOES 162220Z 17008G15KT 33/08 A2992 RMK A01 T03330082  RH  022%=      5-min Rain = 0
KOES 162225Z 16009G14KT 33/08 A2992 RMK A01 T03340082  RH  022%=      5-min Rain = 0
KOES 162230Z 13008G14KT 33/08 A2992 RMK A01 T03330081  RH  022%=      5-min Rain = 0
KOES 162235Z 11007G13KT 33/08 A2992 RMK A01 T03290079  RH  022%=      5-min Rain = 0
KOES 162240Z 12009KT 33/08 A2991 RMK A01 T03270080  RH  022%=      5-min Rain = 0
KOES 162245Z 15011KT 33/08 A2991 RMK A01 T03320079  RH  022%=      5-min Rain = 0
KOES 162250Z 16009KT 33/08 A2991 RMK A01 T03310081  RH  022%=      5-min Rain = 0
KOES 162255Z 13010G15KT 33/08 A2991 RMK A01 T03320082  RH  022%=      5-min Rain = 0
KOES 162300Z 12013G19KT 33/08 A2991 RMK A01 T03280082  RH  023%=      5-min Rain = 0
KOES 162305Z 15010G16KT 33/08 A2991 RMK A01 T03300083  RH  022%=      5-min Rain = 0
KOES 162310Z 13010G15KT 33/08 A2991 RMK A01 T03300081  RH  022%=      5-min Rain = 0
KOES 162315Z 12012G17KT 33/08 A2991 RMK A01 T03300082  RH  022%=      5-min Rain = 0
KOES 162320Z 13012KT 32/08 A2992 RMK A01 T03230082  RH  023%=      5-min Rain = 0
KOES 162325Z 14010G16KT 32/08 A2992 RMK A01 T03230084  RH  024%=      5-min Rain = 0
KOES 162330Z 14011KT 32/08 A2992 RMK A01 T03200083  RH  024%=      5-min Rain = 0
KOES 162335Z 12011G16KT 32/08 A2991 RMK A01 T03150083  RH  024%=      5-min Rain = 0
KOES 162340Z 12012G17KT 31/08 A2991 RMK A01 T03140084  RH  025%=      5-min Rain = 0
KOES 162345Z 10013G18KT 31/08 A2991 RMK A01 T03140083  RH  025%=      5-min Rain = 0
KOES 162350Z 10014KT 31/08 A2991 RMK A01 T03130084  RH  025%=      5-min Rain = 0
KOES 162355Z 10015KT 31/08 A2991 RMK A01 T03120083  RH  025%=      5-min Rain = 0
KOES 170000Z 10017KT 31/08 A299 RMK A01 T03110083  RH  025%=      5-min Rain = 0
KOES 170005Z 10015G20KT 31/08 A299 RMK A01 T03110084  RH  025%=      5-min Rain = 0
KOES 170010Z 10016KT 31/08 A299 RMK A01 T03100084  RH  025%=      5-min Rain = 0
KOES 170015Z 10016KT 31/08 A299 RMK A01 T03070084  RH  026%=      5-min Rain = 0
KOES 170020Z 10015KT 30/09 A299 RMK A01 T03040085  RH  026%=      5-min Rain = 0
KOES 170025Z 10016KT 31/09 A299 RMK A01 T03050085  RH  026%=      5-min Rain = 0
KOES 170030Z 10013KT 31/09 A299 RMK A01 T03060087  RH  026%=      5-min Rain = 0
KOES 170035Z 10013KT 31/09 A299 RMK A01 T03070088  RH  026%=      5-min Rain = 0
KOES 170040Z 10014KT 30/09 A299 RMK A01 T03040087  RH  027%=      5-min Rain = 0
KOES 170045Z 10016KT 30/09 A299 RMK A01 T03020087  RH  027%=      5-min Rain = 0
KOES 170050Z 11017KT 30/09 A299 RMK A01 T03000087  RH  027%=      5-min Rain = 0
KOES 170055Z 11016G21KT 30/09 A2991 RMK A01 T02980087  RH  028%=      5-min Rain = 0
KOES 170100Z 11017KT 30/09 A2991 RMK A01 T02970088  RH  028%=      5-min Rain = 0
KOES 170105Z 12015G20KT 29/09 A2991 RMK A01 T02940089  RH  028%=      5-min Rain = 0
KOES 170110Z 11017G23KT 29/09 A2991 RMK A01 T02920089  RH  029%=      5-min Rain = 0
KOES 170115Z 11017KT 29/09 A2991 RMK A01 T02900089  RH  029%=      5-min Rain = 0
KOES 170120Z 11017KT 29/09 A2991 RMK A01 T02890089  RH  029%=      5-min Rain = 0
KOES 170125Z 11016G21KT 29/09 A2991 RMK A01 T02870089  RH  030%=      5-min Rain = 0
KOES 170130Z 11015KT 29/09 A2991 RMK A01 T02860089  RH  030%=      5-min Rain = 0
KOES 170135Z 11016KT 28/09 A2991 RMK A01 T02840089  RH  030%=      5-min Rain = 0
KOES 170140Z 11015KT 28/09 A2991 RMK A01 T02830090  RH  031%=      5-min Rain = 0
KOES 170145Z 11014KT 28/09 A2992 RMK A01 T02810090  RH  031%=      5-min Rain = 0
KOES 170150Z 11014KT 28/09 A2992 RMK A01 T02800091  RH  031%=      5-min Rain = 0
KOES 170155Z 11014G20KT 28/09 A2992 RMK A01 T02780090  RH  032%=      5-min Rain = 0
KOES 170200Z 11014G19KT 28/09 A2992 RMK A01 T02770090  RH  032%=      5-min Rain = 0
KOES 170205Z 10015KT 28/09 A2993 RMK A01 T02770091  RH  032%=      5-min Rain = 0
KOES 170210Z 10013KT 27/10 A2993 RMK A01 T02740096  RH  034%=      5-min Rain = 0
KOES 170215Z 10017G22KT 27/10 A2993 RMK A01 T02720101  RH  035%=      5-min Rain = 0
KOES 170220Z 10017KT 27/10 A2993 RMK A01 T02700103  RH  036%=      5-min Rain = 0
KOES 170225Z 11016KT 27/10 A2994 RMK A01 T02680104  RH  037%=      5-min Rain = 0
KOES 170230Z 11016G21KT 27/10 A2994 RMK A01 T02670104  RH  037%=      5-min Rain = 0
KOES 170235Z 11015G20KT 27/10 A2994 RMK A01 T02660104  RH  038%=      5-min Rain = 0
KOES 170240Z 11014G19KT 26/10 A2994 RMK A01 T02640104  RH  038%=      5-min Rain = 0
KOES 170245Z 11015KT 26/11 A2994 RMK A01 T02630105  RH  038%=      5-min Rain = 0
KOES 170250Z 11015KT 26/11 A2995 RMK A01 T02620105  RH  038%=      5-min Rain = 0
KOES 170255Z 11014G20KT 26/11 A2995 RMK A01 T02610105  RH  039%=      5-min Rain = 0
KOES 170300Z 11014KT 26/11 A2995 RMK A01 T02600106  RH  039%=      5-min Rain = 0
KOES 170305Z 11015KT 26/11 A2995 RMK A01 T02590106  RH  039%=      5-min Rain = 0
KOES 170310Z 11014KT 26/11 A2996 RMK A01 T02580106  RH  040%=      5-min Rain = 0
KOES 170315Z 11014KT 26/11 A2996 RMK A01 T02570106  RH  040%=      5-min Rain = 0
KOES 170320Z 11013KT 26/11 A2996 RMK A01 T02560106  RH  040%=      5-min Rain = 0
KOES 170325Z 11013KT 26/11 A2997 RMK A01 T02550105  RH  040%=      5-min Rain = 0
KOES 170330Z 12013KT 25/11 A2997 RMK A01 T02540105  RH  040%=      5-min Rain = 0
KOES 170335Z 12011KT 25/11 A2997 RMK A01 T02530105  RH  041%=      5-min Rain = 0
KOES 170340Z 11012KT 25/11 A2997 RMK A01 T02520105  RH  041%=      5-min Rain = 0
KOES 170345Z 11012KT 25/11 A2997 RMK A01 T02510105  RH  041%=      5-min Rain = 0
KOES 170350Z 11013KT 25/10 A2997 RMK A01 T02510104  RH  041%=      5-min Rain = 0
KOES 170355Z 11012KT 25/10 A2997 RMK A01 T02500104  RH  041%=      5-min Rain = 0
KOES 170400Z 11013G18KT 25/10 A2997 RMK A01 T02490104  RH  041%=      5-min Rain = 0
KOES 170405Z 11013KT 25/10 A2998 RMK A01 T02480104  RH  042%=      5-min Rain = 0
KOES 170410Z 11014KT 25/10 A2998 RMK A01 T02470104  RH  042%=      5-min Rain = 0
KOES 170415Z 11013KT 25/11 A2998 RMK A01 T02460105  RH  042%=      5-min Rain = 0
KOES 170420Z 11013KT 25/11 A2998 RMK A01 T02450106  RH  043%=      5-min Rain = 0
KOES 170425Z 11013KT 24/11 A2998 RMK A01 T02440107  RH  043%=      5-min Rain = 0
KOES 170430Z 12013KT 24/11 A2998 RMK A01 T02430107  RH  044%=      5-min Rain = 0
KOES 170435Z 12012G17KT 24/11 A2998 RMK A01 T02420108  RH  044%=      5-min Rain = 0
KOES 170440Z 12011KT 24/11 A2998 RMK A01 T02420109  RH  045%=      5-min Rain = 0
KOES 170445Z 12011KT 24/11 A2998 RMK A01 T02410109  RH  045%=      5-min Rain = 0
KOES 170450Z 12010KT 24/11 A2998 RMK A01 T02400109  RH  045%=      5-min Rain = 0
KOES 170455Z 13009KT 24/11 A2998 RMK A01 T02390110  RH  046%=      5-min Rain = 0

Page generated in 0.0149 seconds.